createdAt,value
2023-03-19T00:03:00.610Z,3.90
2023-03-19T00:06:02.687Z,4.07
2023-03-19T00:09:04.591Z,3.80
2023-03-19T00:12:06.845Z,3.90
2023-03-19T00:15:14.062Z,3.75
2023-03-19T00:18:16.148Z,4.32
2023-03-19T00:21:17.677Z,3.60
2023-03-19T00:24:19.346Z,3.78
2023-03-19T00:27:21.038Z,4.28
2023-03-19T00:30:24.072Z,4.00
2023-03-19T00:33:26.737Z,3.67
2023-03-19T00:36:30.072Z,4.03
2023-03-19T00:39:32.314Z,3.58
2023-03-19T00:42:34.279Z,3.55
2023-03-19T00:45:36.051Z,3.85
2023-03-19T00:48:37.704Z,3.80
2023-03-19T00:51:43.615Z,3.88
2023-03-19T00:54:45.372Z,3.67
2023-03-19T00:57:46.915Z,3.60
2023-03-19T01:00:48.609Z,3.50
2023-03-19T01:03:50.126Z,3.88
2023-03-19T01:06:51.653Z,4.03
2023-03-19T01:09:53.262Z,4.07
2023-03-19T01:12:54.752Z,3.53
2023-03-19T01:15:56.614Z,3.83
2023-03-19T01:18:58.533Z,3.70
2023-03-19T01:22:00.150Z,4.05
2023-03-19T01:25:02.183Z,3.65
2023-03-19T01:28:03.960Z,3.53
2023-03-19T01:31:07.720Z,3.58
2023-03-19T01:34:36.660Z,3.47
2023-03-19T01:37:43.940Z,3.67
2023-03-19T01:40:48.577Z,3.67
2023-03-19T01:43:50.622Z,4.60
2023-03-19T01:47:26.067Z,4.05
2023-03-19T01:50:53.833Z,4.38
2023-03-19T01:54:19.073Z,4.30
2023-03-19T01:57:24.514Z,4.15
2023-03-19T02:00:39.194Z,4.63
2023-03-19T02:03:42.322Z,4.55
2023-03-19T02:07:00.735Z,4.10
2023-03-19T02:10:07.228Z,3.35
2023-03-19T02:13:08.878Z,4.40
2023-03-19T02:16:11.053Z,4.40
2023-03-19T02:19:19.046Z,3.80
2023-03-19T02:22:23.786Z,3.85
2023-03-19T02:25:33.060Z,4.25
2023-03-19T02:28:39.773Z,3.58
2023-03-19T02:31:42.210Z,3.78
2023-03-19T02:34:44.610Z,4.05
2023-03-19T02:37:46.915Z,3.45
2023-03-19T02:41:04.539Z,4.25
2023-03-19T02:44:06.637Z,4.38
2023-03-19T02:47:08.385Z,3.80
2023-03-19T02:50:10.467Z,3.88
2023-03-19T02:53:12.236Z,3.70
2023-03-19T02:56:13.766Z,4.05
2023-03-19T02:59:15.472Z,3.78
2023-03-19T03:02:17.573Z,3.58
2023-03-19T03:05:19.054Z,3.60
2023-03-19T03:08:21.637Z,3.25
2023-03-19T03:11:23.164Z,3.00
2023-03-19T03:14:24.832Z,3.38
2023-03-19T03:17:27.003Z,2.97
2023-03-19T03:20:28.517Z,3.15
2023-03-19T03:23:30.008Z,3.30
2023-03-19T03:26:31.742Z,3.13
2023-03-19T03:29:33.197Z,2.83
2023-03-19T03:32:36.729Z,2.88
2023-03-19T03:35:38.895Z,3.08
2023-03-19T03:38:40.688Z,3.10
2023-03-19T03:41:42.431Z,3.20
2023-03-19T03:44:44.523Z,3.00
2023-03-19T03:47:46.305Z,3.55
2023-03-19T03:50:47.931Z,2.85
2023-03-19T03:53:53.246Z,3.03
2023-03-19T03:56:54.837Z,3.05
2023-03-19T03:59:56.509Z,3.10
2023-03-19T04:02:59.299Z,3.15
2023-03-19T04:06:00.857Z,2.85
2023-03-19T04:09:02.923Z,3.13
2023-03-19T04:12:04.873Z,3.17
2023-03-19T04:15:08.076Z,3.65
2023-03-19T04:18:11.743Z,3.10
2023-03-19T04:21:13.604Z,3.17
2023-03-19T04:24:15.495Z,3.17
2023-03-19T04:27:17.043Z,3.08
2023-03-19T04:30:18.972Z,2.85
2023-03-19T04:33:20.569Z,3.17
2023-03-19T04:36:22.512Z,3.35
2023-03-19T04:39:24.731Z,3.10
2023-03-19T04:42:26.974Z,3.15
2023-03-19T04:45:39.129Z,3.40
2023-03-19T04:48:41.055Z,3.50
2023-03-19T04:51:42.757Z,3.28
2023-03-19T04:54:44.273Z,3.22
2023-03-19T04:57:45.864Z,2.45
2023-03-19T05:00:48.040Z,3.13
2023-03-19T05:03:54.310Z,2.95
2023-03-19T05:06:57.416Z,3.50
2023-03-19T05:09:59.245Z,3.47
2023-03-19T05:13:00.846Z,3.55
2023-03-19T05:16:02.674Z,3.13
2023-03-19T05:19:05.252Z,3.58
2023-03-19T05:22:07.653Z,3.28
2023-03-19T05:25:09.825Z,3.17
2023-03-19T05:28:14.857Z,3.63
2023-03-19T05:31:17.307Z,3.70
2023-03-19T05:34:23.445Z,3.10
2023-03-19T05:37:26.667Z,3.53
2023-03-19T05:40:32.022Z,3.30
2023-03-19T05:43:38.169Z,3.72
2023-03-19T05:46:43.729Z,3.40
2023-03-19T05:49:46.046Z,3.45
2023-03-19T05:52:47.860Z,3.67
2023-03-19T05:55:49.367Z,3.97
2023-03-19T05:58:51.057Z,3.22
2023-03-19T06:01:57.140Z,4.22
2023-03-19T06:04:58.823Z,4.50
2023-03-19T06:08:04.254Z,4.57
2023-03-19T06:11:19.292Z,3.67
2023-03-19T06:14:26.785Z,3.35
2023-03-19T06:17:51.218Z,3.80
2023-03-19T06:20:52.978Z,3.80
2023-03-19T06:23:54.659Z,3.70
2023-03-19T06:27:03.701Z,3.50
2023-03-19T06:30:05.849Z,3.60
2023-03-19T06:33:08.329Z,4.20
2023-03-19T06:36:09.945Z,4.07
2023-03-19T06:39:11.552Z,3.53
2023-03-19T06:42:13.243Z,4.43
2023-03-19T06:45:16.523Z,4.47
2023-03-19T06:48:18.783Z,4.77
2023-03-19T06:51:20.454Z,4.15
2023-03-19T06:54:22.374Z,4.93
2023-03-19T06:57:23.895Z,4.70
2023-03-19T07:00:25.416Z,5.50
2023-03-19T07:03:26.939Z,5.47
2023-03-19T07:06:28.433Z,4.43
2023-03-19T07:09:29.916Z,4.40
2023-03-19T07:12:31.531Z,4.57
2023-03-19T07:15:33.908Z,5.45
2023-03-19T07:18:35.919Z,5.18
2023-03-19T07:21:37.424Z,6.10
2023-03-19T07:24:38.879Z,5.03
2023-03-19T07:27:40.397Z,5.90
2023-03-19T07:30:42.097Z,4.82
2023-03-19T07:33:43.684Z,5.10
2023-03-19T07:36:45.146Z,5.10
2023-03-19T07:39:46.890Z,4.95
2023-03-19T07:42:48.413Z,4.63
2023-03-19T07:45:49.869Z,5.18
2023-03-19T07:48:51.360Z,4.60
2023-03-19T07:51:53.855Z,4.40
2023-03-19T07:54:56.035Z,4.32
2023-03-19T07:57:57.703Z,4.70
2023-03-19T08:00:59.226Z,4.93
2023-03-19T08:04:00.787Z,4.15
2023-03-19T08:07:02.289Z,4.88
2023-03-19T08:10:05.557Z,4.00
2023-03-19T08:13:07.165Z,4.30
2023-03-19T08:16:09.316Z,3.90
2023-03-19T08:19:10.770Z,3.60
2023-03-19T08:22:12.649Z,4.15
2023-03-19T08:25:14.588Z,4.15
2023-03-19T08:28:16.177Z,4.65
2023-03-19T08:31:17.701Z,4.95
2023-03-19T08:34:19.429Z,4.50
2023-03-19T08:37:20.894Z,4.55
2023-03-19T08:40:23.390Z,4.55
2023-03-19T08:43:25.133Z,3.88
2023-03-19T08:46:27.611Z,4.15
2023-03-19T08:49:29.454Z,3.83
2023-03-19T08:52:31.279Z,3.90
2023-03-19T08:55:32.906Z,3.63
2023-03-19T08:58:34.827Z,3.35
2023-03-19T09:01:37.257Z,3.50
2023-03-19T09:04:43.243Z,3.72
2023-03-19T09:07:45.551Z,4.32
2023-03-19T09:10:47.115Z,3.85
2023-03-19T09:13:48.748Z,3.80
2023-03-19T09:16:50.314Z,3.53
2023-03-19T09:19:51.879Z,3.50
2023-03-19T09:22:53.397Z,3.72
2023-03-19T09:25:54.965Z,3.80
2023-03-19T09:28:56.567Z,3.60
2023-03-19T09:31:58.227Z,3.58
2023-03-19T09:34:59.729Z,3.35
2023-03-19T09:38:02.137Z,4.72
2023-03-19T09:41:31.530Z,4.05
2023-03-19T09:44:38.057Z,3.58
2023-03-19T09:47:40.088Z,3.67
2023-03-19T09:50:42.458Z,3.63
2023-03-19T09:53:58.605Z,3.60
2023-03-19T09:57:01.100Z,3.50
2023-03-19T10:00:18.987Z,3.80
2023-03-19T10:03:52.387Z,3.45
2023-03-19T10:07:04.128Z,3.50
2023-03-19T10:10:33.413Z,3.70
2023-03-19T10:14:06.941Z,4.07
2023-03-19T10:17:16.421Z,3.40
2023-03-19T10:20:30.374Z,3.50
2023-03-19T10:23:45.684Z,3.25
2023-03-19T10:26:47.831Z,3.75
2023-03-19T10:29:49.427Z,3.47
2023-03-19T10:33:17.373Z,3.40
2023-03-19T10:36:22.163Z,3.28
2023-03-19T10:39:24.085Z,3.53
2023-03-19T10:42:39.280Z,3.40
2023-03-19T10:45:41.299Z,3.38
2023-03-19T10:48:45.846Z,7.13
2023-03-19T10:51:48.810Z,5.18
2023-03-19T10:54:55.958Z,3.80
2023-03-19T10:58:06.730Z,5.22
2023-03-19T11:01:12.975Z,5.65
2023-03-19T11:04:19.421Z,4.10
2023-03-19T11:07:21.783Z,4.57
2023-03-19T11:10:25.833Z,2.95
2023-03-19T11:16:29.245Z,3.10
2023-03-19T11:19:34.451Z,3.28
2023-03-19T11:22:37.698Z,3.67
2023-03-19T11:25:51.810Z,2.80
2023-03-19T11:28:53.493Z,2.80
2023-03-19T11:32:26.386Z,3.75
2023-03-19T11:36:18.914Z,4.63
2023-03-19T11:39:35.675Z,3.22
2023-03-19T11:42:55.905Z,3.63
2023-03-19T11:46:19.738Z,3.65
2023-03-19T11:49:29.927Z,3.40
2023-03-19T11:53:02.575Z,3.42
2023-03-19T11:56:33.641Z,3.83
2023-03-19T12:00:07.948Z,3.33
2023-03-19T12:03:22.375Z,3.15
2023-03-19T12:06:57.055Z,3.35
2023-03-19T12:10:35.273Z,3.42
2023-03-19T12:13:46.054Z,3.08
2023-03-19T12:17:07.242Z,3.45
2023-03-19T12:20:42.181Z,3.55
2023-03-19T12:23:53.726Z,3.38
2023-03-19T12:27:04.327Z,3.05
2023-03-19T12:30:18.122Z,3.55
2023-03-19T12:33:32.516Z,3.97
2023-03-19T12:36:45.872Z,4.13
2023-03-19T12:40:22.098Z,4.07
2023-03-19T12:43:42.173Z,4.20
2023-03-19T12:46:58.570Z,4.38
2023-03-19T12:50:05.576Z,3.67
2023-03-19T12:53:17.177Z,4.63
2023-03-19T12:56:39.284Z,6.03
2023-03-19T12:59:54.368Z,4.15
2023-03-19T13:03:05.160Z,4.05
2023-03-19T13:06:12.937Z,3.38
2023-03-19T13:09:43.841Z,4.13
2023-03-19T13:12:47.853Z,4.30
2023-03-19T13:22:09.776Z,4.45
2023-03-19T13:25:17.591Z,4.35
2023-03-19T13:28:37.955Z,4.68
2023-03-19T13:31:39.844Z,4.35
2023-03-19T13:34:41.534Z,4.30
2023-03-19T13:37:43.869Z,4.68
2023-03-19T13:40:52.526Z,4.53
2023-03-19T13:43:55.024Z,4.00
2023-03-19T13:46:57.625Z,9.95
2023-03-19T13:50:20.153Z,15.45
2023-03-19T13:53:34.649Z,4.70
2023-03-19T13:57:08.687Z,4.85
2023-03-19T14:00:43.874Z,7.77
2023-03-19T14:04:16.878Z,5.10
2023-03-19T14:07:21.038Z,5.22
2023-03-19T14:10:28.976Z,4.88
2023-03-19T14:13:47.367Z,4.18
2023-03-19T14:16:52.721Z,4.95
2023-03-19T14:19:54.682Z,5.07
2023-03-19T14:23:11.667Z,5.28
2023-03-19T14:26:23.192Z,4.10
2023-03-19T14:29:26.428Z,4.25
2023-03-19T14:32:40.926Z,4.43
2023-03-19T14:35:46.654Z,4.68
2023-03-19T14:38:55.944Z,4.35
2023-03-19T14:42:22.359Z,4.50
2023-03-19T14:45:35.180Z,4.00
2023-03-19T14:48:51.157Z,3.80
2023-03-19T14:52:07.658Z,4.10
2023-03-19T14:55:12.769Z,3.55
2023-03-19T14:58:14.859Z,3.70
2023-03-19T15:01:17.294Z,3.70
2023-03-19T15:04:22.783Z,3.33
2023-03-19T15:07:35.021Z,3.92
2023-03-19T15:11:03.471Z,3.35
2023-03-19T15:14:17.163Z,3.35
2023-03-19T15:17:25.719Z,3.60
2023-03-19T15:20:38.030Z,3.60
2023-03-19T15:23:41.630Z,3.10
2023-03-19T15:26:43.691Z,2.90
2023-03-19T15:29:49.014Z,2.90
2023-03-19T15:33:07.833Z,2.45
2023-03-19T15:36:12.914Z,3.40
2023-03-19T15:39:19.404Z,2.58
2023-03-19T15:42:23.241Z,1.90
2023-03-19T15:45:27.025Z,1.88
2023-03-19T15:48:38.225Z,1.83
2023-03-19T15:51:40.723Z,2.30
2023-03-19T15:54:42.919Z,3.45
2023-03-19T15:57:45.221Z,2.78
2023-03-19T16:00:47.096Z,2.10
2023-03-19T16:03:59.859Z,2.53
2023-03-19T16:07:01.899Z,2.20
2023-03-19T16:10:27.998Z,1.77
2023-03-19T16:13:39.542Z,1.88
2023-03-19T16:16:42.223Z,2.40
2023-03-19T16:19:56.393Z,2.60
2023-03-19T16:23:01.110Z,3.05
2023-03-19T16:26:15.110Z,2.58
2023-03-19T16:29:28.727Z,3.28
2023-03-19T16:32:32.143Z,2.80
2023-03-19T16:35:34.920Z,3.67
2023-03-19T16:38:44.370Z,8.15
2023-03-19T16:42:10.965Z,4.90
2023-03-19T16:45:15.401Z,2.97
2023-03-19T16:48:16.900Z,1.85
2023-03-19T16:51:21.127Z,2.30
2023-03-19T16:54:23.716Z,2.28
2023-03-19T16:57:25.747Z,2.05
2023-03-19T17:00:31.383Z,2.17
2023-03-19T17:03:33.404Z,2.45
2023-03-19T17:06:34.875Z,2.75
2023-03-19T17:09:36.634Z,2.05
2023-03-19T17:12:38.403Z,2.22
2023-03-19T17:15:42.289Z,3.30
2023-03-19T17:18:44.945Z,3.38
2023-03-19T17:21:48.797Z,3.55
2023-03-19T17:24:50.572Z,3.33
2023-03-19T17:27:52.170Z,2.80
2023-03-19T17:30:53.775Z,3.22
2023-03-19T17:34:31.795Z,3.50
2023-03-19T17:37:33.322Z,3.97
2023-03-19T17:40:35.472Z,3.85
2023-03-19T17:43:37.285Z,4.78
2023-03-19T17:46:42.841Z,4.45
2023-03-19T17:49:45.203Z,4.03
2023-03-19T17:52:47.194Z,4.35
2023-03-19T17:55:48.661Z,4.00
2023-03-19T17:58:50.593Z,4.97
2023-03-19T18:01:52.312Z,3.20
2023-03-19T18:04:53.796Z,3.70
2023-03-19T18:07:56.277Z,4.35
2023-03-19T18:10:57.790Z,3.60
2023-03-19T18:13:59.371Z,4.03
2023-03-19T18:17:01.195Z,3.65
2023-03-19T18:20:04.377Z,4.90
2023-03-19T18:23:06.683Z,5.23
2023-03-19T18:26:08.689Z,7.38
2023-03-19T18:29:10.304Z,7.40
2023-03-19T18:32:15.955Z,7.25
2023-03-19T18:35:21.073Z,7.05
2023-03-19T18:38:24.962Z,7.80
2023-03-19T18:41:30.999Z,5.07
2023-03-19T18:44:38.268Z,3.03
2023-03-19T18:47:41.380Z,1.70
2023-03-19T18:50:42.984Z,1.83
2023-03-19T18:53:44.515Z,1.42
2023-03-19T18:56:47.949Z,1.50
2023-03-19T18:59:49.552Z,1.73
2023-03-19T19:02:53.148Z,1.25
2023-03-19T19:05:56.089Z,0.82
2023-03-19T19:08:57.655Z,2.20
2023-03-19T19:12:00.758Z,3.45
2023-03-19T19:15:05.025Z,3.40
2023-03-19T19:18:21.643Z,3.28
2023-03-19T19:21:23.458Z,1.50
2023-03-19T19:24:25.051Z,3.50
2023-03-19T19:27:26.749Z,2.50
2023-03-19T19:30:28.791Z,2.58
2023-03-19T19:33:36.953Z,2.40
2023-03-19T19:36:38.462Z,1.65
2023-03-19T19:39:40.219Z,2.80
2023-03-19T19:42:43.983Z,3.05
2023-03-19T19:45:48.436Z,2.78
2023-03-19T19:48:50.140Z,2.22
2023-03-19T19:51:51.808Z,2.63
2023-03-19T19:54:53.448Z,2.00
2023-03-19T19:57:57.432Z,2.03
2023-03-19T20:01:04.224Z,5.65
2023-03-19T20:04:06.196Z,3.50
2023-03-19T20:07:07.771Z,2.42
2023-03-19T20:10:10.109Z,4.03
2023-03-19T20:13:22.716Z,2.10
2023-03-19T20:16:26.023Z,2.67
2023-03-19T20:19:27.531Z,1.00
2023-03-19T20:22:29.610Z,1.20
2023-03-19T20:25:34.984Z,2.60
2023-03-19T20:28:36.676Z,8.65
2023-03-19T20:31:38.585Z,1.20
2023-03-19T20:34:40.131Z,1.30
2023-03-19T20:37:41.640Z,4.72
2023-03-19T20:40:52.112Z,6.88
2023-03-19T20:43:55.105Z,5.32
2023-03-19T20:46:56.617Z,3.72
2023-03-19T20:49:58.197Z,3.03
2023-03-19T20:53:03.570Z,2.65
2023-03-19T20:56:11.592Z,3.42
2023-03-19T20:59:13.038Z,2.22
2023-03-19T21:02:20.443Z,4.10
2023-03-19T21:05:23.600Z,3.92
2023-03-19T21:08:37.160Z,4.10
2023-03-19T21:11:41.921Z,2.30
2023-03-19T21:14:43.440Z,2.78
2023-03-19T21:17:44.974Z,4.35
2023-03-19T21:20:50.880Z,5.25
2023-03-19T21:24:01.068Z,8.65
2023-03-19T21:27:04.068Z,6.88
2023-03-19T21:30:06.518Z,3.75
2023-03-19T21:33:23.207Z,2.88
2023-03-19T21:36:24.768Z,2.65
2023-03-19T21:39:26.266Z,2.60
2023-03-19T21:42:30.349Z,2.03
2023-03-19T21:45:36.402Z,1.67
2023-03-19T21:48:39.910Z,1.67
2023-03-19T21:51:43.879Z,4.43
2023-03-19T21:54:45.918Z,5.75
2023-03-19T21:57:47.585Z,3.67
2023-03-19T22:00:49.588Z,2.90
2023-03-19T22:03:52.992Z,2.50
2023-03-19T22:06:54.535Z,3.53
2023-03-19T22:09:55.987Z,6.30
2023-03-19T22:12:57.584Z,5.28
2023-03-19T22:16:00.389Z,3.33
2023-03-19T22:19:02.256Z,4.00
2023-03-19T22:22:03.872Z,4.63
2023-03-19T22:25:05.729Z,3.60
2023-03-19T22:28:35.882Z,2.40
2023-03-19T22:31:37.489Z,1.92
2023-03-19T22:34:39.077Z,2.25
2023-03-19T22:37:40.746Z,1.80
2023-03-19T22:40:45.969Z,2.35
2023-03-19T22:43:47.890Z,2.70
2023-03-19T22:46:49.655Z,2.72
2023-03-19T22:49:51.991Z,2.63
2023-03-19T22:52:54.586Z,2.75
2023-03-19T22:55:57.019Z,2.85
2023-03-19T22:58:58.481Z,2.50
2023-03-19T23:02:00.304Z,2.58
2023-03-19T23:05:02.174Z,1.95
2023-03-19T23:08:06.183Z,2.42
2023-03-19T23:11:08.602Z,2.55
2023-03-19T23:14:26.139Z,2.05
2023-03-19T23:17:29.899Z,2.13
2023-03-19T23:20:35.027Z,2.10
2023-03-19T23:23:36.563Z,2.20
2023-03-19T23:26:40.496Z,1.75
2023-03-19T23:29:44.267Z,2.20
2023-03-19T23:32:45.747Z,2.30
2023-03-19T23:35:48.255Z,2.63
2023-03-19T23:38:49.755Z,1.80
2023-03-19T23:41:57.128Z,2.90
2023-03-19T23:45:01.939Z,2.10
2023-03-19T23:48:06.238Z,2.25
2023-03-19T23:57:37.108Z,2.30
